Alfafar, Spain
Current Conditions -  °F | °C
As of 12:00 PM on Wednesday 22 Oct 2014 (Local Time) from LEVC Reporting Station
Clear Clear  
Wind Chill: 81°   Ceiling: Unl
Heat Index: 81°   Visibility: 6mi
Dew Point: 39°   Wind: 0mph
Humidity: 23%   Direction: NA
Pressure: 30.21"   Gusts: NA
Location:  39.42°N, 0.38°W
Report Text: LEVC 221000Z 00000KT CAVOK 27/04 Q1023 NOSIG
Loading
Personal Weather Stations






























Interactive Weather Map
Tropical Storm Tracking
New forecast layout! Learn more

10-Day Weather Forecast

Advertisements
Track Severe Weather on mobile